This is the latest recevied weather packets stored in our database for station/object OH2TH. If no packets are shown the sender has not sent any weather packets the latest 10 day(s).
| Time | Temp. | Humidity | Pressure | Rain* | Wind** | Luminosity | Snow |
|---|---|---|---|---|---|---|---|
| 1777568404 | 13.89° C | 56% | 102 hPa | 3.05 mm | - | - | - |
| 1777567504 | 14.44° C | 56% | 102 hPa | - | - | - | - |
| 1777566604 | 14.44° C | 56% | 102 hPa | - | - | - | - |
| 1777565703 | 14.44° C | 54% | 102 hPa | - | - | - | - |
| 1777564803 | 16.67° C | 49% | 102 hPa | - | - | - | - |
| 1777563903 | 16.67° C | 46% | 102 hPa | - | - | - | - |
| 1777563003 | 16.67° C | 46% | 102 hPa | - | - | - | - |
| 1777562102 | 16.67° C | 46% | 102 hPa | 3.05 mm | - | - | - |
| 1777561202 | 17.22° C | 45% | 102 hPa | 3.05 mm | - | - | - |
| 1777560302 | 17.22° C | 45% | 102 hPa | 3.05 mm | - | - | - |
| 1777559402 | 17.22° C | 45% | 102 hPa | 3.05 mm | - | - | - |
| 1777558502 | 17.22° C | 44% | 102 hPa | - | - | - | - |
| 1777557602 | 16.11° C | 44% | 102 hPa | - | - | - | - |
| 1777556702 | 16.11° C | 46% | 102 hPa | - | - | - | - |
| 1777555801 | 16.11° C | 46% | 102 hPa | - | - | - | - |
| 1777554901 | 16.11° C | 46% | 102 hPa | 3.05 mm | - | - | - |
| 1777554001 | 17.22° C | 46% | 102 hPa | 3.05 mm | - | - | - |
| 1777553101 | 17.22° C | 45% | 102 hPa | 3.05 mm | - | - | - |
| 1777552201 | 16.11° C | 46% | 102 hPa | 3.05 mm | - | - | - |
| 1777551301 | 15.56° C | 47% | 102 hPa | - | - | - | - |
| 1777550401 | 15.56° C | 50% | 102 hPa | - | - | - | - |
| 1777549505 | 15° C | 48% | 102 hPa | - | - | - | - |
| 1777548605 | 15° C | 51% | 102 hPa | - | - | - | - |
| 1777547705 | 15° C | 49% | 102 hPa | 3.05 mm | - | - | - |
| 1777546804 | 15° C | 51% | 102 hPa | 3.05 mm | - | - | - |
* Rain latest hour (hover to see other rain measurements)
** Current wind speed in m/s (hover to see current wind gust speed)